Godoy Moreira, Brazil
Current Conditions -  °F | °C
As of 2:00 PM on Sunday 21 Dec 2014 (Local Time) from SBMG Reporting Station
Broken Clouds Broken Clouds  
Wind Chill: 82°   Ceiling: 8000
Heat Index: 87°   Visibility: 6mi
Dew Point: 72°   Wind: 23mph
Humidity: 70%   Direction: 320°NW
Pressure: 29.8"   Gusts: NA
Location:  24.18°S, 51.92°W
Report Text: SBMG 211600Z 32020KT 9999 SCT025 BKN080 28/22 Q1009
Loading
Personal Weather Stations






























Interactive Weather Map New forecast layout! Learn more

10-Day Weather Forecast

Advertisements
Track Severe Weather on mobile